createdAt,value
2023-02-06T11:41:03.345Z,101637.66
2023-02-06T11:41:37.919Z,101637.38
2023-02-06T11:42:22.993Z,101640.19
2023-02-06T11:43:42.894Z,101647.19
2023-02-06T11:45:15.218Z,101640.19
2023-02-06T11:45:54.776Z,101640.44
2023-02-06T11:46:32.545Z,101641.84
2023-02-06T11:47:34.678Z,101641.00
2023-02-06T11:48:37.872Z,101634.97
2023-02-06T11:49:56.624Z,101637.94
2023-02-06T11:50:36.044Z,101643.28
2023-02-06T11:51:08.303Z,101635.69
2023-02-06T11:51:54.019Z,101638.56
2023-02-06T11:52:48.253Z,101642.19
2023-02-06T11:53:20.007Z,101631.03
2023-02-06T11:53:59.197Z,101630.13
2023-02-06T11:54:35.368Z,101634.06
2023-02-06T11:55:09.809Z,101636.59
2023-02-06T11:55:43.304Z,101633.00
2023-02-06T11:56:17.253Z,101632.47
2023-02-06T11:57:03.444Z,101632.47
2023-02-06T11:57:35.379Z,101627.50
2023-02-06T11:58:15.854Z,101631.13
2023-02-06T11:58:47.705Z,101636.16
2023-02-06T11:59:21.511Z,101623.63
2023-02-06T11:59:57.830Z,101628.38
2023-02-06T12:00:30.460Z,101633.16
2023-02-06T12:01:04.945Z,101619.22
2023-02-06T12:01:42.294Z,101625.09
2023-02-06T12:02:36.765Z,101628.44
2023-02-06T12:03:33.356Z,101624.03
2023-02-06T12:04:05.236Z,101624.91
2023-02-06T12:04:38.341Z,101624.06
2023-02-06T12:05:13.090Z,101621.56
2023-02-06T12:05:44.868Z,101626.31
2023-02-06T12:06:33.813Z,101626.31
2023-02-06T12:07:38.976Z,101619.34
2023-02-06T12:08:11.683Z,101620.19
2023-02-06T12:08:50.267Z,101627.44
2023-02-06T12:09:22.084Z,101622.16
2023-02-06T12:09:53.777Z,101624.41
2023-02-06T12:10:25.513Z,101621.91
2023-02-06T12:11:00.271Z,101623.00
2023-02-06T12:11:59.704Z,101624.97
2023-02-06T12:12:34.769Z,101623.00
2023-02-06T12:13:12.913Z,101621.31
2023-02-06T12:13:48.016Z,101619.09
2023-02-06T12:14:38.365Z,101624.41
2023-02-06T12:15:39.916Z,101620.25
2023-02-06T12:16:07.244Z,101614.09
2023-02-06T12:16:39.927Z,101621.88
2023-02-06T12:17:31.650Z,101613.81
2023-02-06T12:18:05.871Z,101619.13
2023-02-06T12:18:39.472Z,101607.66
2023-02-06T12:19:22.824Z,101605.41
2023-02-06T12:20:00.781Z,101604.03
2023-02-06T12:20:34.926Z,101606.25
2023-02-06T12:21:14.515Z,101605.41
2023-02-06T12:21:51.524Z,101601.22
2023-02-06T12:22:24.163Z,101600.09
2023-02-06T12:22:59.610Z,101597.59
2023-02-06T12:23:41.448Z,101596.19
2023-02-06T12:24:57.689Z,101602.88
2023-02-06T12:25:41.692Z,101598.97
2023-02-06T12:26:15.272Z,101604.81
2023-02-06T12:26:46.958Z,101602.00
2023-02-06T12:27:21.290Z,101598.97
2023-02-06T12:27:58.261Z,101603.97
2023-02-06T12:28:35.809Z,101605.34
2023-02-06T12:29:19.492Z,101597.25
2023-02-06T12:30:07.807Z,101599.47
2023-02-06T12:30:47.159Z,101601.97
2023-02-06T12:31:21.401Z,101599.72
2023-02-06T12:31:59.112Z,101598.03
2023-02-06T12:32:41.097Z,101596.09
2023-02-06T12:33:28.095Z,101590.22
2023-02-06T12:34:10.870Z,101593.31
2023-02-06T12:35:14.439Z,101593.56
2023-02-06T12:35:52.419Z,101591.03
2023-02-06T12:36:25.829Z,101586.56
2023-02-06T12:37:08.973Z,101586.84
2023-02-06T12:37:48.058Z,101584.31
2023-02-06T12:38:56.509Z,101584.06
2023-02-06T12:39:32.391Z,101583.50
2023-02-06T12:40:04.263Z,101584.28
2023-02-06T12:41:00.907Z,101590.44
2023-02-06T12:41:54.441Z,101584.88
2023-02-06T12:42:43.245Z,101580.34
2023-02-06T12:43:16.009Z,101577.56
2023-02-06T12:43:52.114Z,101583.72
2023-02-06T12:44:35.016Z,101580.34
2023-02-06T12:45:31.881Z,101582.56
2023-02-06T12:46:08.661Z,101577.56
2023-02-06T12:46:43.378Z,101582.84
2023-02-06T12:47:20.457Z,101579.50
2023-02-06T12:47:59.549Z,101576.16
2023-02-06T12:48:37.336Z,101579.47
2023-02-06T12:49:51.741Z,101581.97
2023-02-06T12:50:28.765Z,101573.88
2023-02-06T12:51:09.471Z,101575.84
2023-02-06T12:52:21.726Z,101582.56
2023-02-06T12:52:56.075Z,101580.06
2023-02-06T12:53:47.437Z,101570.00
2023-02-06T12:54:28.521Z,101574.47
2023-02-06T12:55:08.129Z,101571.94
2023-02-06T12:56:09.550Z,101571.63
2023-02-06T12:56:42.747Z,101578.06
2023-02-06T12:57:21.448Z,101575.81
2023-02-06T12:57:53.166Z,101575.00
2023-02-06T12:58:36.741Z,101571.06
2023-02-06T12:59:29.798Z,101574.69
2023-02-06T13:00:12.867Z,101578.34
2023-02-06T13:00:46.961Z,101576.38
2023-02-06T13:01:30.702Z,101573.28
2023-02-06T13:02:22.466Z,101568.53
2023-02-06T13:03:23.282Z,101572.16
2023-02-06T13:03:56.476Z,101569.38
2023-02-06T13:04:30.340Z,101578.28
2023-02-06T13:05:05.876Z,101570.75
2023-02-06T13:05:43.142Z,101576.03
2023-02-06T13:06:20.223Z,101572.13
2023-02-06T13:06:55.956Z,101581.34
2023-02-06T13:07:28.323Z,101576.59
2023-02-06T13:08:14.879Z,101581.88
2023-02-06T13:08:56.175Z,101570.72
2023-02-06T13:09:32.620Z,101570.44
2023-02-06T13:10:06.007Z,101575.19
2023-02-06T13:10:38.010Z,101578.50
2023-02-06T13:11:13.524Z,101572.94
2023-02-06T13:11:45.287Z,101568.19
2023-02-06T13:12:25.546Z,101550.31
2023-02-06T13:13:01.162Z,101572.34
2023-02-06T13:13:38.041Z,101565.09
2023-02-06T13:14:20.185Z,101554.75
2023-02-06T13:15:11.862Z,101575.16
2023-02-06T13:15:43.579Z,101570.94
2023-02-06T13:16:15.331Z,101572.06
2023-02-06T13:16:51.193Z,101568.13
2023-02-06T13:17:37.100Z,101577.91
2023-02-06T13:18:44.560Z,101574.56
2023-02-06T13:19:46.877Z,101574.03
2023-02-06T13:20:19.783Z,101577.41
2023-02-06T13:21:14.315Z,101572.94
2023-02-06T13:21:56.542Z,101574.88
2023-02-06T13:22:52.360Z,101576.00
2023-02-06T13:23:24.385Z,101578.47
2023-02-06T13:24:02.145Z,101577.38
2023-02-06T13:24:34.181Z,101579.31
2023-02-06T13:25:30.374Z,101569.56
2023-02-06T13:26:03.350Z,101574.31
2023-02-06T13:26:51.652Z,101571.28
2023-02-06T13:27:24.678Z,101574.06
2023-02-06T13:28:01.251Z,101575.19
2023-02-06T13:28:40.430Z,101575.72
2023-02-06T13:29:34.372Z,101572.34
2023-02-06T13:30:24.153Z,101572.06
2023-02-06T13:30:58.945Z,101567.59
2023-02-06T13:31:31.479Z,101572.06
2023-02-06T13:32:12.349Z,101574.88
2023-02-06T13:32:45.327Z,101570.09
2023-02-06T13:33:21.382Z,101571.78
2023-02-06T13:33:55.382Z,101567.03
2023-02-06T13:34:27.131Z,101567.88
2023-02-06T13:35:16.784Z,101566.44
2023-02-06T13:35:54.287Z,101567.28
2023-02-06T13:36:41.434Z,101573.69
2023-02-06T13:37:41.995Z,101577.03
2023-02-06T13:38:22.491Z,101581.22
2023-02-06T13:38:55.945Z,101577.31
2023-02-06T13:39:29.990Z,101577.31
2023-02-06T13:40:22.996Z,101575.31
2023-02-06T13:41:13.157Z,101578.97
2023-02-06T13:41:44.876Z,101577.84
2023-02-06T13:42:46.283Z,101579.22
2023-02-06T13:43:23.928Z,101573.63
2023-02-06T13:44:31.368Z,101568.88
2023-02-06T13:45:06.089Z,101575.00
2023-02-06T13:45:42.440Z,101571.09
2023-02-06T13:46:18.863Z,101570.25
2023-02-06T13:47:22.593Z,101561.59
2023-02-06T13:48:09.172Z,101566.63
2023-02-06T13:49:08.514Z,101564.38
2023-02-06T13:50:31.967Z,101566.06
2023-02-06T13:51:38.534Z,101566.91
2023-02-06T13:52:18.726Z,101572.19
2023-02-06T13:53:22.792Z,101573.03
2023-02-06T13:54:31.032Z,101572.50
2023-02-06T13:55:21.407Z,101565.50
2023-02-06T13:56:25.190Z,101563.81
2023-02-06T13:57:27.356Z,101564.38
2023-02-06T13:58:39.285Z,101565.75
2023-02-06T13:59:28.110Z,101556.78
2023-02-06T14:00:10.722Z,101560.16
2023-02-06T14:00:46.137Z,101566.59
2023-02-06T14:01:23.198Z,101561.81
2023-02-06T14:01:55.824Z,101564.59
2023-02-06T14:02:31.400Z,101562.66
2023-02-06T14:03:14.199Z,101562.38
2023-02-06T14:03:51.288Z,101556.47
2023-02-06T14:04:27.116Z,101562.06
2023-02-06T14:05:00.370Z,101557.31
2023-02-06T14:05:41.634Z,101552.31
2023-02-06T14:06:56.894Z,101565.97
2023-02-06T14:07:57.449Z,101559.56
2023-02-06T14:09:08.904Z,101559.25
2023-02-06T14:10:04.985Z,101565.97
2023-02-06T14:10:46.836Z,101558.44
2023-02-06T14:11:27.381Z,101565.97
2023-02-06T14:12:29.195Z,101564.03
2023-02-06T14:13:08.246Z,101566.81
2023-02-06T14:14:02.802Z,101562.06
2023-02-06T14:14:49.444Z,101561.22
2023-02-06T14:16:03.986Z,101561.53
2023-02-06T14:16:53.681Z,101564.06
2023-02-06T14:17:56.994Z,101552.88
2023-02-06T14:19:00.568Z,101556.78
2023-02-06T14:19:53.309Z,101558.78
2023-02-06T14:20:46.464Z,101555.72
2023-02-06T14:21:42.841Z,101559.38
2023-02-06T14:23:10.050Z,101550.97
2023-02-06T14:23:51.558Z,101554.91
2023-02-06T14:25:04.387Z,101550.44
2023-02-06T14:26:07.013Z,101546.53
2023-02-06T14:26:47.325Z,101548.16
2023-02-06T14:27:51.554Z,101551.25
2023-02-06T14:28:57.997Z,101547.09
2023-02-06T14:30:15.812Z,101552.44
2023-02-06T14:31:34.928Z,101542.66
2023-02-06T14:32:12.345Z,101547.41
2023-02-06T14:33:15.639Z,101546.88
2023-02-06T14:33:53.245Z,101546.03
2023-02-06T14:34:43.610Z,101544.34
2023-02-06T14:35:27.943Z,101546.34
2023-02-06T14:36:18.287Z,101545.19
2023-02-06T14:37:28.121Z,101542.13
2023-02-06T14:38:18.471Z,101539.34
2023-02-06T14:39:08.064Z,101541.00
2023-02-06T14:39:55.082Z,101544.94
2023-02-06T14:40:31.364Z,101544.63
2023-02-06T14:41:04.195Z,101547.41
2023-02-06T14:41:39.671Z,101535.41
2023-02-06T14:42:25.900Z,101543.78
2023-02-06T14:43:01.388Z,101548.25
2023-02-06T14:43:39.277Z,101548.25
2023-02-06T14:44:20.216Z,101541.00
2023-02-06T14:44:59.998Z,101542.66
2023-02-06T14:45:42.053Z,101551.59
2023-02-06T14:46:18.385Z,101549.94
2023-02-06T14:46:50.358Z,101547.41
2023-02-06T14:47:29.358Z,101540.16
2023-02-06T14:48:03.551Z,101541.00
2023-02-06T14:48:49.037Z,101545.72
2023-02-06T14:49:32.653Z,101552.16
2023-02-06T14:50:06.444Z,101550.50
2023-02-06T14:50:42.641Z,101543.78
2023-02-06T14:51:28.489Z,101549.13
2023-02-06T14:52:02.885Z,101545.50
2023-02-06T14:52:35.313Z,101545.50
2023-02-06T14:53:29.414Z,101546.63
2023-02-06T14:54:27.784Z,101547.72
2023-02-06T14:54:59.425Z,101539.66
2023-02-06T14:55:32.689Z,101543.56
2023-02-06T14:56:16.949Z,101546.34
2023-02-06T14:56:55.888Z,101546.66
2023-02-06T14:57:30.848Z,101551.41
2023-02-06T14:58:04.240Z,101548.63
2023-02-06T14:58:36.201Z,101543.56
2023-02-06T14:59:13.739Z,101551.94
2023-02-06T15:00:18.850Z,101552.25
2023-02-06T15:00:50.627Z,101552.25
2023-02-06T15:01:27.214Z,101548.34
2023-02-06T15:02:11.525Z,101544.97
2023-02-06T15:02:43.284Z,101545.31
2023-02-06T15:03:19.163Z,101547.28
2023-02-06T15:03:52.821Z,101550.66
2023-02-06T15:04:27.947Z,101541.22
2023-02-06T15:05:02.033Z,101554.34
2023-02-06T15:05:34.533Z,101552.97
2023-02-06T15:06:10.230Z,101550.75
2023-02-06T15:06:49.889Z,101554.09
2023-02-06T15:07:27.302Z,101554.41
2023-02-06T15:08:02.283Z,101551.88
2023-02-06T15:08:34.843Z,101557.47
2023-02-06T15:09:08.485Z,101554.16
2023-02-06T15:09:46.522Z,101560.84
2023-02-06T15:10:28.699Z,101557.50
2023-02-06T15:11:04.286Z,101559.47
2023-02-06T15:11:35.989Z,101558.34
2023-02-06T15:12:20.082Z,101562.56
2023-02-06T15:12:54.036Z,101562.56
2023-02-06T15:13:34.946Z,101558.91
2023-02-06T15:14:21.411Z,101566.47
2023-02-06T15:15:18.935Z,101562.81
2023-02-06T15:15:56.144Z,101564.78
2023-02-06T15:16:29.009Z,101564.25
2023-02-06T15:17:02.678Z,101571.78
2023-02-06T15:17:34.525Z,101562.28
2023-02-06T15:18:16.558Z,101565.09
2023-02-06T15:18:48.651Z,101567.31
2023-02-06T15:19:24.201Z,101561.72
2023-02-06T15:19:56.643Z,101567.31
2023-02-06T15:20:31.161Z,101562.00
2023-02-06T15:21:12.500Z,101562.56
2023-02-06T15:21:44.412Z,101563.94
2023-02-06T15:22:23.428Z,101563.09
2023-02-06T15:23:11.727Z,101566.50
2023-02-06T15:24:00.105Z,101565.06
2023-02-06T15:24:52.254Z,101564.81
2023-02-06T15:25:49.496Z,101568.72
2023-02-06T15:27:02.170Z,101568.44
2023-02-06T15:27:36.714Z,101572.34
2023-02-06T15:28:18.875Z,101573.19
2023-02-06T15:28:58.304Z,101567.31
2023-02-06T15:29:30.167Z,101564.81
2023-02-06T15:30:16.622Z,101563.97
2023-02-06T15:30:54.536Z,101567.59
2023-02-06T15:31:28.294Z,101574.03
2023-02-06T15:32:21.739Z,101570.41
2023-02-06T15:32:56.145Z,101562.88
2023-02-06T15:33:33.408Z,101567.59
2023-02-06T15:34:05.700Z,101573.19
2023-02-06T15:34:38.207Z,101571.50
2023-02-06T15:35:23.694Z,101560.88
2023-02-06T15:35:59.334Z,101567.59
2023-02-06T15:36:32.388Z,101568.72
2023-02-06T15:37:23.341Z,101571.22
2023-02-06T15:37:56.796Z,101571.50
2023-02-06T15:38:32.369Z,101571.22
2023-02-06T15:39:09.623Z,101569.56
2023-02-06T15:39:42.241Z,101569.81
2023-02-06T15:40:18.888Z,101571.50
2023-02-06T15:40:59.087Z,101572.34
2023-02-06T15:41:32.005Z,101569.56
2023-02-06T15:42:04.716Z,101570.66
2023-02-06T15:42:37.056Z,101570.66
2023-02-06T15:43:15.289Z,101572.63
2023-02-06T15:43:48.469Z,101575.41
2023-02-06T15:44:22.773Z,101569.00
2023-02-06T15:44:54.617Z,101579.34
2023-02-06T15:45:31.075Z,101574.31
2023-02-06T15:46:06.035Z,101579.63
2023-02-06T15:46:38.482Z,101577.09
2023-02-06T15:47:14.716Z,101576.25
2023-02-06T15:47:47.229Z,101582.41
2023-02-06T15:48:43.663Z,101579.31
2023-02-06T15:49:19.871Z,101576.81
2023-02-06T15:49:53.250Z,101583.22
2023-02-06T15:50:28.727Z,101575.97
2023-02-06T15:51:20.755Z,101580.41
2023-02-06T15:51:54.951Z,101575.69
2023-02-06T15:52:36.066Z,101582.09
2023-02-06T15:53:28.946Z,101583.25
2023-02-06T15:54:15.798Z,101581.81
2023-02-06T15:54:57.573Z,101584.31
2023-02-06T15:55:35.806Z,101582.66
2023-02-06T15:56:23.490Z,101588.22
2023-02-06T15:57:20.917Z,101585.44
2023-02-06T15:57:54.502Z,101585.44
2023-02-06T15:58:26.745Z,101587.38
2023-02-06T15:59:02.697Z,101584.59
2023-02-06T15:59:39.756Z,101585.75
2023-02-06T16:00:23.745Z,101591.59
2023-02-06T16:00:57.545Z,101592.44
2023-02-06T16:01:32.001Z,101583.22
2023-02-06T16:02:04.500Z,101587.69
2023-02-06T16:02:39.875Z,101585.75
2023-02-06T16:03:20.824Z,101586.84
2023-02-06T16:03:59.564Z,101589.63
2023-02-06T16:04:40.546Z,101586.84
2023-02-06T16:05:34.903Z,101582.09
2023-02-06T16:06:15.465Z,101585.19
2023-02-06T16:07:05.804Z,101598.31
2023-02-06T16:07:37.491Z,101588.00
2023-02-06T16:08:23.889Z,101597.47
2023-02-06T16:08:59.264Z,101588.25
2023-02-06T16:09:33.425Z,101605.56
2023-02-06T16:10:08.381Z,101597.47
2023-02-06T16:10:41.283Z,101594.38
2023-02-06T16:11:31.514Z,101598.31
2023-02-06T16:12:03.258Z,101608.34
2023-02-06T16:12:37.753Z,101601.94
2023-02-06T16:13:16.242Z,101599.97
2023-02-06T16:13:47.962Z,101602.75
2023-02-06T16:14:42.183Z,101608.34
2023-02-06T16:15:35.957Z,101607.53
2023-02-06T16:16:20.159Z,101602.75
2023-02-06T16:17:09.727Z,101606.41
2023-02-06T16:17:42.792Z,101605.00
2023-02-06T16:18:30.830Z,101611.13
2023-02-06T16:19:35.682Z,101609.47
2023-02-06T16:20:34.463Z,101608.66
2023-02-06T16:21:16.920Z,101612.28
2023-02-06T16:22:14.966Z,101612.28
2023-02-06T16:22:46.714Z,101614.22
2023-02-06T16:23:18.330Z,101613.38
2023-02-06T16:23:52.805Z,101618.13
2023-02-06T16:24:24.796Z,101614.22
2023-02-06T16:25:25.932Z,101616.19
2023-02-06T16:26:12.383Z,101619.81
2023-02-06T16:26:49.357Z,101622.31
2023-02-06T16:27:24.953Z,101617.88
2023-02-06T16:27:57.367Z,101613.94
2023-02-06T16:28:30.017Z,101628.72
2023-02-06T16:29:16.263Z,101618.41
2023-02-06T16:29:52.715Z,101620.34
2023-02-06T16:30:29.541Z,101626.78
2023-02-06T16:31:04.668Z,101620.66
2023-02-06T16:31:39.369Z,101620.66
2023-02-06T16:32:18.449Z,101623.44
2023-02-06T16:32:51.120Z,101620.66
2023-02-06T16:33:44.484Z,101622.31
2023-02-06T16:34:44.212Z,101625.09
2023-02-06T16:35:15.999Z,101632.38
2023-02-06T16:35:49.207Z,101630.69
2023-02-06T16:36:23.878Z,101625.09
2023-02-06T16:36:55.645Z,101621.50
2023-02-06T16:37:30.048Z,101625.09
2023-02-06T16:38:01.714Z,101624.00
2023-02-06T16:38:34.030Z,101626.78
2023-02-06T16:39:05.726Z,101628.47
2023-02-06T16:39:38.087Z,101625.94
2023-02-06T16:40:10.102Z,101627.06
2023-02-06T16:40:41.823Z,101627.88
2023-02-06T16:41:36.201Z,101625.94
2023-02-06T16:42:14.174Z,101635.16
2023-02-06T16:42:49.492Z,101634.31
2023-02-06T16:43:21.836Z,101627.06
2023-02-06T16:43:55.956Z,101625.09
2023-02-06T16:44:39.591Z,101627.06
2023-02-06T16:45:19.403Z,101629.56
2023-02-06T16:45:51.147Z,101628.47
2023-02-06T16:46:23.150Z,101631.25
2023-02-06T16:46:54.890Z,101634.03
2023-02-06T16:47:27.075Z,101639.06
2023-02-06T16:47:58.747Z,101635.16
2023-02-06T16:48:30.548Z,101639.91
2023-02-06T16:49:02.254Z,101636.25
2023-02-06T16:49:34.017Z,101643.53
2023-02-06T16:50:05.962Z,101640.75
2023-02-06T16:50:39.854Z,101642.69
2023-02-06T16:51:16.705Z,101643.53
2023-02-06T16:51:52.151Z,101644.38
2023-02-06T16:52:30.251Z,101647.44
2023-02-06T16:53:02.754Z,101645.78
2023-02-06T16:53:34.471Z,101645.78
2023-02-06T16:54:08.139Z,101645.47
2023-02-06T16:54:40.059Z,101653.03
2023-02-06T16:55:22.062Z,101647.44
2023-02-06T16:55:54.541Z,101648.28
2023-02-06T16:56:26.428Z,101655.81
2023-02-06T16:57:09.549Z,101653.03
2023-02-06T16:57:45.037Z,101649.13
2023-02-06T16:58:21.214Z,101653.59
2023-02-06T16:58:52.917Z,101649.13
2023-02-06T16:59:24.667Z,101647.16
2023-02-06T16:59:56.824Z,101642.41
2023-02-06T17:00:31.354Z,101646.31
2023-02-06T17:01:03.306Z,101645.47
2023-02-06T17:01:35.674Z,101654.41
2023-02-06T17:02:12.419Z,101649.13
2023-02-06T17:02:45.032Z,101661.13
2023-02-06T17:03:17.881Z,101656.38
2023-02-06T17:03:50.348Z,101657.19
2023-02-06T17:04:22.057Z,101656.38
2023-02-06T17:04:54.312Z,101655.53
2023-02-06T17:05:28.303Z,101654.69
2023-02-06T17:06:00.813Z,101656.38
2023-02-06T17:06:35.096Z,101657.50
2023-02-06T17:07:13.979Z,101658.34
2023-02-06T17:07:46.212Z,101653.59
2023-02-06T17:08:24.336Z,101657.19
2023-02-06T17:09:03.367Z,101650.81
2023-02-06T17:09:35.273Z,101656.94
2023-02-06T17:10:07.641Z,101655.84
2023-02-06T17:10:39.473Z,101658.03
2023-02-06T17:11:11.322Z,101664.47
2023-02-06T17:11:43.081Z,101657.19
2023-02-06T17:12:19.114Z,101666.19
2023-02-06T17:12:50.998Z,101664.47
2023-02-06T17:13:24.329Z,101659.19
2023-02-06T17:13:56.021Z,101661.66
2023-02-06T17:14:27.689Z,101665.56
2023-02-06T17:14:59.448Z,101664.22
2023-02-06T17:15:31.968Z,101661.44
2023-02-06T17:16:03.825Z,101657.81
2023-02-06T17:16:36.142Z,101664.47
2023-02-06T17:17:10.139Z,101664.47
2023-02-06T17:17:42.137Z,101665.03
2023-02-06T17:18:16.970Z,101675.41
2023-02-06T17:18:49.764Z,101675.94
2023-02-06T17:19:22.061Z,101667.84
2023-02-06T17:19:54.135Z,101675.41
2023-02-06T17:20:38.313Z,101669.50
2023-02-06T17:21:14.617Z,101670.34
2023-02-06T17:21:46.315Z,101673.16
2023-02-06T17:22:18.130Z,101669.25
2023-02-06T17:22:50.922Z,101661.97
2023-02-06T17:23:23.808Z,101671.19
2023-02-06T17:23:55.506Z,101662.25
2023-02-06T17:24:27.248Z,101668.66
2023-02-06T17:24:58.973Z,101672.31
2023-02-06T17:25:31.551Z,101668.41
2023-02-06T17:26:03.212Z,101668.09
2023-02-06T17:26:34.978Z,101662.81
2023-02-06T17:27:08.950Z,101667.25
2023-02-06T17:27:41.185Z,101670.06
2023-02-06T17:28:19.099Z,101670.06
2023-02-06T17:28:51.895Z,101671.75
2023-02-06T17:29:23.584Z,101668.09
2023-02-06T17:29:55.335Z,101670.06
2023-02-06T17:30:27.667Z,101671.75
2023-02-06T17:30:59.538Z,101671.75
2023-02-06T17:31:31.368Z,101665.31
2023-02-06T17:32:03.404Z,101674.84
2023-02-06T17:32:35.177Z,101672.03
2023-02-06T17:33:07.747Z,101673.69
2023-02-06T17:33:39.625Z,101674.53
2023-02-06T17:34:11.415Z,101670.06
2023-02-06T17:34:43.258Z,101676.22
2023-02-06T17:35:15.210Z,101674.53
2023-02-06T17:35:48.190Z,101676.22
2023-02-06T17:36:29.280Z,101679.00
2023-02-06T17:37:01.390Z,101672.59
2023-02-06T17:37:33.061Z,101675.38
2023-02-06T17:38:07.012Z,101675.38
2023-02-06T17:38:38.721Z,101681.22
2023-02-06T17:39:13.233Z,101671.47
2023-02-06T17:39:44.987Z,101676.47
2023-02-06T17:40:20.618Z,101671.75
2023-02-06T17:40:53.914Z,101674.53
2023-02-06T17:41:28.565Z,101672.59
2023-02-06T17:42:00.398Z,101667.00
2023-02-06T17:42:32.722Z,101670.91
2023-02-06T17:43:04.804Z,101676.47
2023-02-06T17:43:37.526Z,101668.69
2023-02-06T17:44:09.205Z,101676.47
2023-02-06T17:44:42.560Z,101673.69
2023-02-06T17:45:14.574Z,101680.97
2023-02-06T17:45:46.621Z,101679.28
2023-02-06T17:46:18.536Z,101677.31
2023-02-06T17:46:50.256Z,101682.06
2023-02-06T17:47:21.883Z,101682.91
2023-02-06T17:47:54.115Z,101677.06
2023-02-06T17:48:25.760Z,101685.72
2023-02-06T17:48:57.457Z,101683.47
2023-02-06T17:49:29.147Z,101683.75
2023-02-06T17:50:00.811Z,101674.53
2023-02-06T17:50:34.249Z,101678.16
2023-02-06T17:51:06.070Z,101686.53
2023-02-06T17:51:40.596Z,101679.84
2023-02-06T17:52:12.727Z,101682.91
2023-02-06T17:52:44.613Z,101687.38
2023-02-06T17:53:16.562Z,101683.75
2023-02-06T17:53:48.238Z,101681.81
2023-02-06T17:54:19.985Z,101685.44
2023-02-06T17:54:51.893Z,101681.81
2023-02-06T17:55:24.899Z,101685.72
2023-02-06T17:55:56.624Z,101682.66
2023-02-06T17:56:28.314Z,101679.84
2023-02-06T17:57:00.043Z,101681.81
2023-02-06T17:57:31.720Z,101685.72
2023-02-06T17:58:04.553Z,101680.97
2023-02-06T17:58:36.273Z,101686.53
2023-02-06T17:59:07.904Z,101681.81
2023-02-06T17:59:39.532Z,101688.50
2023-02-06T18:00:16.749Z,101686.53
2023-02-06T18:00:49.939Z,101682.66
2023-02-06T18:01:23.716Z,101677.06
2023-02-06T18:01:55.707Z,101682.91
2023-02-06T18:02:27.604Z,101680.97
2023-02-06T18:03:00.443Z,101686.53
2023-02-06T18:03:32.146Z,101686.53
2023-02-06T18:04:04.007Z,101678.16
2023-02-06T18:04:35.766Z,101686.25
2023-02-06T18:05:08.656Z,101681.81
2023-02-06T18:05:40.357Z,101678.16
2023-02-06T18:06:12.402Z,101682.91
2023-02-06T18:06:44.215Z,101689.88
2023-02-06T18:07:15.890Z,101682.66
2023-02-06T18:07:49.780Z,101681.81
2023-02-06T18:08:21.761Z,101679.84
2023-02-06T18:08:53.426Z,101680.97
2023-02-06T18:09:25.194Z,101683.75
2023-02-06T18:09:57.753Z,101679.84
2023-02-06T18:10:29.455Z,101679.00
2023-02-06T18:11:01.344Z,101681.81
2023-02-06T18:11:35.803Z,101687.09
2023-02-06T18:12:07.493Z,101683.47
2023-02-06T18:12:39.294Z,101677.06
2023-02-06T18:13:11.038Z,101693.53
2023-02-06T18:13:42.876Z,101693.81
2023-02-06T18:14:14.618Z,101689.03
2023-02-06T18:14:48.111Z,101692.69
2023-02-06T18:15:19.951Z,101696.31
2023-02-06T18:15:55.270Z,101689.03
2023-02-06T18:16:28.647Z,101687.38
2023-02-06T18:17:00.374Z,101689.88
2023-02-06T18:17:32.068Z,101686.25
2023-02-06T18:18:04.970Z,101688.78
2023-02-06T18:18:36.619Z,101691.03
2023-02-06T18:19:09.509Z,101689.88
2023-02-06T18:19:42.595Z,101689.88
2023-02-06T18:20:16.961Z,101690.19
2023-02-06T18:20:49.149Z,101696.03
2023-02-06T18:21:21.864Z,101692.41
2023-02-06T18:21:53.523Z,101697.44
2023-02-06T18:22:25.192Z,101694.94
2023-02-06T18:22:56.964Z,101693.22
2023-02-06T18:23:28.729Z,101691.53
2023-02-06T18:24:00.389Z,101699.38
2023-02-06T18:24:32.166Z,101696.28
2023-02-06T18:25:05.223Z,101694.09
2023-02-06T18:25:42.005Z,101696.03
2023-02-06T18:26:16.103Z,101700.75
2023-02-06T18:26:47.927Z,101694.94
2023-02-06T18:27:21.360Z,101700.22
2023-02-06T18:27:53.211Z,101694.94
2023-02-06T18:28:25.001Z,101692.97
2023-02-06T18:28:56.703Z,101689.38
2023-02-06T18:29:37.314Z,101700.53
2023-02-06T18:30:19.461Z,101693.22
2023-02-06T18:30:51.283Z,101697.75
2023-02-06T18:31:28.930Z,101696.03
2023-02-06T18:32:00.660Z,101697.75
2023-02-06T18:32:33.436Z,101700.75
2023-02-06T18:33:05.126Z,101698.56
2023-02-06T18:33:37.161Z,101692.97
2023-02-06T18:34:08.979Z,101692.16
2023-02-06T18:34:41.396Z,101686.81
2023-02-06T18:35:14.900Z,101690.16
2023-02-06T18:35:46.723Z,101694.94
2023-02-06T18:36:19.877Z,101702.19
2023-02-06T18:36:51.628Z,101703.03
2023-02-06T18:37:23.352Z,101695.75
2023-02-06T18:37:55.541Z,101697.44
2023-02-06T18:38:27.202Z,101694.66
2023-02-06T18:38:58.931Z,101697.44
2023-02-06T18:39:30.718Z,101698.28
2023-02-06T18:40:02.882Z,101696.59
2023-02-06T18:40:34.632Z,101696.34
2023-02-06T18:41:06.855Z,101693.81
2023-02-06T18:41:57.362Z,101695.75
2023-02-06T18:42:47.653Z,101697.44
2023-02-06T18:43:19.331Z,101699.38
2023-02-06T18:43:50.977Z,101696.59
2023-02-06T18:44:23.946Z,101695.75
2023-02-06T18:44:55.631Z,101703.88
2023-02-06T18:45:31.334Z,101699.13
2023-02-06T18:46:08.726Z,101698.28
2023-02-06T18:46:40.600Z,101697.97
2023-02-06T18:47:15.122Z,101699.97
2023-02-06T18:47:47.148Z,101697.19
2023-02-06T18:48:18.831Z,101691.59
2023-02-06T18:48:50.583Z,101698.28
2023-02-06T18:49:22.423Z,101694.38
2023-02-06T18:49:54.177Z,101699.13
2023-02-06T18:50:25.957Z,101696.34
2023-02-06T18:50:58.604Z,101699.97
2023-02-06T18:51:30.854Z,101697.19
2023-02-06T18:52:03.337Z,101696.88
2023-02-06T18:52:35.042Z,101697.97
2023-02-06T18:53:07.857Z,101694.38
2023-02-06T18:53:39.581Z,101697.19
2023-02-06T18:54:11.294Z,101699.13
2023-02-06T18:54:43.045Z,101693.53
2023-02-06T18:55:15.503Z,101699.97
2023-02-06T18:55:57.123Z,101691.59
2023-02-06T18:56:29.169Z,101691.28
2023-02-06T18:57:01.640Z,101693.25
2023-02-06T18:57:33.656Z,101700.50
2023-02-06T18:58:05.888Z,101694.09
2023-02-06T18:58:37.605Z,101698.81
2023-02-06T18:59:09.371Z,101698.81
2023-02-06T18:59:41.252Z,101698.81
2023-02-06T19:00:15.520Z,101699.66
2023-02-06T19:00:47.387Z,101699.66
2023-02-06T19:01:22.069Z,101703.31
2023-02-06T19:01:54.028Z,101696.88
2023-02-06T19:02:26.048Z,101697.72
2023-02-06T19:02:58.670Z,101706.09
2023-02-06T19:03:30.348Z,101695.78
2023-02-06T19:04:02.067Z,101702.47
2023-02-06T19:04:35.881Z,101703.31
2023-02-06T19:05:08.293Z,101698.56
2023-02-06T19:05:40.002Z,101698.56